Time;durP1;ratioP1;P1;durP2;ratioP2;P2;SDS_P1;SDS_P2;PMS_P1;PMS_P2;Temp;Humidity;BMP_temperature;BMP_pressure;BME280_temperature;BME280_humidity;BME280_pressure;Samples;Min_cycle;Max_cycle;Signal;HPM_P1;HPM_P2
2023/04/04 00:00:10;;;;;;;9.93;2.70;;;1.00;62.10;;;;;;5051466;28;20455;-79
2023/04/04 00:02:37;;;;;;;5.00;2.17;;;1.10;62.50;;;;;;5050751;28;20494;-79
2023/04/04 00:05:06;;;;;;;5.20;2.37;;;1.20;61.90;;;;;;5050977;28;20458;-79
2023/04/04 00:07:33;;;;;;;8.13;3.07;;;1.10;62.50;;;;;;5050887;28;20455;-79
2023/04/04 00:10:01;;;;;;;9.50;2.77;;;1.10;63.00;;;;;;5051415;28;20463;-79
2023/04/04 00:12:30;;;;;;;12.33;3.73;;;1.10;64.10;;;;;;5051170;28;20498;-79
2023/04/04 00:14:57;;;;;;;9.30;2.80;;;1.10;63.90;;;;;;5051059;28;20451;-79
2023/04/04 00:17:25;;;;;;;6.30;2.57;;;1.10;63.60;;;;;;5033309;28;20460;-79
2023/04/04 00:19:52;;;;;;;4.63;2.40;;;1.10;63.70;;;;;;5051247;28;20695;-79
2023/04/04 00:22:20;;;;;;;5.30;2.50;;;1.00;62.60;;;;;;5051181;28;20824;-79
2023/04/04 00:24:47;;;;;;;9.73;2.83;;;1.10;62.50;;;;;;5051241;28;20458;-79
2023/04/04 00:27:14;;;;;;;7.50;2.73;;;1.20;62.30;;;;;;5051130;28;20557;-79
2023/04/04 00:29:42;;;;;;;6.13;2.57;;;1.10;61.50;;;;;;5032993;28;20508;-79
2023/04/04 00:32:10;;;;;;;6.07;2.70;;;1.10;62.00;;;;;;5032827;28;20460;-79
2023/04/04 00:34:37;;;;;;;7.97;2.80;;;1.00;62.40;;;;;;5050635;28;20487;-79
2023/04/04 00:37:06;;;;;;;7.82;2.75;;;1.00;62.40;;;;;;5051479;28;20447;-79
2023/04/04 00:39:33;;;;;;;6.67;2.60;;;1.00;62.40;;;;;;5050721;28;20220;-79
2023/04/04 00:42:00;;;;;;;5.00;2.23;;;1.10;62.40;;;;;;5051007;28;21008;-79
2023/04/04 00:44:27;;;;;;;8.20;2.37;;;1.10;62.50;;;;;;5016547;28;20491;-79
2023/04/04 00:46:55;;;;;;;5.77;3.00;;;1.00;62.40;;;;;;5051323;28;20974;-79
2023/04/04 00:49:22;;;;;;;9.30;3.23;;;1.10;62.50;;;;;;5050457;28;20483;-79
2023/04/04 00:51:49;;;;;;;8.70;3.10;;;1.00;62.40;;;;;;5050360;28;20490;-79
2023/04/04 00:54:16;;;;;;;5.93;2.80;;;1.00;62.40;;;;;;5051115;28;20451;-79
2023/04/04 00:56:44;;;;;;;6.53;2.63;;;1.00;62.40;;;;;;5051072;28;20547;-79
2023/04/04 00:59:15;;;;;;;8.53;3.00;;;1.00;62.50;;;;;;5050894;28;20477;-79
2023/04/04 01:01:42;;;;;;;5.50;2.57;;;0.90;62.50;;;;;;5033187;28;20451;-79
2023/04/04 01:04:10;;;;;;;4.23;2.13;;;1.00;62.40;;;;;;5050709;28;20822;-79
2023/04/04 01:06:37;;;;;;;12.00;3.13;;;1.00;62.40;;;;;;5050999;28;20454;-79
2023/04/04 01:09:04;;;;;;;4.80;2.47;;;1.00;62.70;;;;;;5050681;28;20851;-79
2023/04/04 01:11:31;;;;;;;5.43;2.50;;;1.10;62.50;;;;;;5050354;28;20456;-79
2023/04/04 01:14:01;;;;;;;4.97;2.77;;;1.00;62.40;;;;;;5050663;28;20459;-79
2023/04/04 01:16:28;;;;;;;7.37;3.10;;;0.90;62.90;;;;;;5036706;28;20455;-79
2023/04/04 01:18:56;;;;;;;6.80;2.67;;;0.80;63.80;;;;;;5054422;28;20571;-82
2023/04/04 01:21:25;;;;;;;14.10;2.60;;;0.70;65.50;;;;;;5036123;28;20980;-80
2023/04/04 01:24:00;;;;;;;5.97;2.70;;;0.70;64.70;;;;;;5053999;28;20462;-80
2023/04/04 01:26:30;;;;;;;6.13;3.30;;;0.70;64.90;;;;;;5054090;28;20542;-80
2023/04/04 01:28:59;;;;;;;7.17;3.33;;;0.70;64.90;;;;;;5053585;28;20475;-79
2023/04/04 01:31:30;;;;;;;6.37;2.83;;;0.70;65.20;;;;;;5054194;28;20821;-80
2023/04/04 01:34:04;;;;;;;9.20;2.97;;;0.50;65.60;;;;;;5053660;28;20464;-80
2023/04/04 01:36:37;;;;;;;5.87;2.83;;;0.50;66.30;;;;;;5053908;28;20451;-80
2023/04/04 01:39:13;;;;;;;7.10;3.50;;;0.40;66.10;;;;;;5053638;28;20501;-80
2023/04/04 01:41:42;;;;;;;4.40;2.53;;;0.30;67.10;;;;;;5054129;28;20461;-79
2023/04/04 01:44:10;;;;;;;6.17;2.90;;;0.10;67.90;;;;;;5053664;28;20968;-79
2023/04/04 01:46:37;;;;;;;7.07;2.90;;;0.10;69.50;;;;;;5054158;28;20501;-80
2023/04/04 01:49:04;;;;;;;6.60;3.00;;;-0.20;69.30;;;;;;5053526;28;20586;-80
2023/04/04 01:51:31;;;;;;;5.43;2.90;;;-0.30;69.70;;;;;;5035565;28;20458;-80
2023/04/04 01:53:58;;;;;;;14.40;4.07;;;-0.40;71.00;;;;;;5053353;28;20686;-79
2023/04/04 01:56:25;;;;;;;8.07;3.50;;;-0.60;72.80;;;;;;5053617;28;20466;-80
2023/04/04 01:58:53;;;;;;;6.67;2.80;;;-0.60;74.10;;;;;;5053568;28;20498;-80
2023/04/04 02:01:20;;;;;;;6.40;3.40;;;-0.70;75.90;;;;;;5053508;28;20451;-80
2023/04/04 02:03:47;;;;;;;6.87;3.00;;;-0.80;77.00;;;;;;5035735;28;20546;-80
2023/04/04 02:06:14;;;;;;;8.03;3.40;;;-0.90;76.80;;;;;;5053385;28;20550;-79
2023/04/04 02:08:42;;;;;;;7.25;3.25;;;-1.00;78.30;;;;;;5053575;28;20574;-80
2023/04/04 02:11:08;;;;;;;6.57;3.37;;;-1.20;78.10;;;;;;5053353;28;20197;-80
2023/04/04 02:13:36;;;;;;;5.83;2.90;;;-1.30;80.60;;;;;;5053037;28;20467;-80
2023/04/04 02:16:05;;;;;;;7.50;3.00;;;-1.40;83.50;;;;;;5035107;28;20479;-80
2023/04/04 02:18:33;;;;;;;9.23;4.00;;;-1.40;84.90;;;;;;5053047;28;20209;-80
2023/04/04 02:21:00;;;;;;;7.13;4.17;;;-1.20;86.10;;;;;;5053058;28;20200;-80
2023/04/04 02:23:27;;;;;;;13.07;4.40;;;-1.20;85.70;;;;;;5052621;28;20542;-79
2023/04/04 02:25:55;;;;;;;6.07;3.33;;;-1.20;85.10;;;;;;5052716;28;20207;-80
2023/04/04 02:28:23;;;;;;;6.05;2.90;;;-1.30;85.90;;;;;;5052695;28;20700;-79
2023/04/04 02:30:50;;;;;;;7.90;3.87;;;-1.20;87.00;;;;;;5052655;28;20219;-79
2023/04/04 02:33:18;;;;;;;9.10;3.50;;;-1.00;86.40;;;;;;5052338;28;20463;-79
2023/04/04 02:35:47;;;;;;;10.35;3.67;;;-0.90;84.00;;;;;;5052747;28;20200;-80
2023/04/04 02:38:14;;;;;;;8.38;3.65;;;-1.10;83.80;;;;;;5052760;28;20708;-80
2023/04/04 02:40:41;;;;;;;6.60;4.23;;;-1.10;86.10;;;;;;5052959;28;20197;-80
2023/04/04 02:43:08;;;;;;;5.60;3.17;;;-1.30;88.70;;;;;;5034695;28;20463;-80
2023/04/04 02:45:35;;;;;;;6.50;3.42;;;-1.50;89.90;;;;;;5052380;28;20456;-80
2023/04/04 02:48:04;;;;;;;6.47;3.50;;;-1.60;91.30;;;;;;5052114;28;20219;-80
2023/04/04 02:50:32;;;;;;;7.30;4.65;;;-1.60;93.60;;;;;;5052644;28;20252;-79
2023/04/04 02:53:01;;;;;;;6.65;4.65;;;-1.60;95.00;;;;;;5052579;28;20203;-80
2023/04/04 02:55:29;;;;;;;7.78;4.28;;;-1.60;96.60;;;;;;5051715;28;20193;-79
2023/04/04 02:57:56;;;;;;;9.88;5.80;;;-1.70;97.40;;;;;;5052289;28;20221;-79
2023/04/04 03:00:23;;;;;;;7.82;6.88;;;-1.70;99.00;;;;;;5052208;28;20207;-80
2023/04/04 03:02:54;;;;;;;7.18;6.20;;;-1.90;99.90;;;;;;5034390;28;20197;-80
2023/04/04 03:05:21;;;;;;;10.85;9.95;;;-2.00;99.90;;;;;;5052274;28;20475;-80
2023/04/04 03:07:54;;;;;;;17.27;16.17;;;-2.10;99.90;;;;;;5052026;28;20213;-80
2023/04/04 03:10:21;;;;;;;22.75;21.50;;;-2.20;99.90;;;;;;5052294;28;20217;-79
2023/04/04 03:12:48;;;;;;;39.03;37.25;;;-2.30;99.90;;;;;;5051879;28;20197;-79
2023/04/04 03:15:15;;;;;;;50.92;48.70;;;-2.40;99.90;;;;;;5051613;28;20212;-79
2023/04/04 03:17:43;;;;;;;106.95;102.80;;;-2.40;99.90;;;;;;5033755;28;20205;-79
2023/04/04 03:20:12;;;;;;;113.85;109.55;;;-2.40;99.90;;;;;;5052092;28;20193;-79
2023/04/04 03:22:38;;;;;;;81.43;78.30;;;-2.30;99.90;;;;;;5051966;28;20197;-80
2023/04/04 03:25:08;;;;;;;60.72;58.25;;;-2.20;99.90;;;;;;5051210;28;20204;-80
2023/04/04 03:27:35;;;;;;;51.95;49.58;;;-2.30;99.90;;;;;;5051488;28;20566;-80
2023/04/04 03:30:02;;;;;;;61.88;59.42;;;-2.30;99.90;;;;;;5051809;28;20225;-80
2023/04/04 03:32:29;;;;;;;57.20;54.88;;;-2.30;99.90;;;;;;5051492;28;20208;-79
2023/04/04 03:34:56;;;;;;;92.32;88.35;;;-2.30;99.90;;;;;;5051532;28;20196;-79
2023/04/04 03:37:23;;;;;;;50.65;48.38;;;-2.00;99.90;;;;;;5033315;28;20193;-80
2023/04/04 03:39:50;;;;;;;28.33;26.83;;;-2.00;99.90;;;;;;5051550;28;20192;-80
2023/04/04 03:42:18;;;;;;;21.15;20.13;;;-2.10;99.90;;;;;;5051053;28;20197;-79
2023/04/04 03:44:46;;;;;;;20.35;18.65;;;-2.20;99.90;;;;;;5051328;28;20295;-80
2023/04/04 03:47:14;;;;;;;30.25;28.55;;;-2.30;99.90;;;;;;5051307;28;20197;-79
2023/04/04 03:49:41;;;;;;;30.27;28.17;;;-2.10;99.90;;;;;;5051347;28;20311;-80
2023/04/04 03:52:08;;;;;;;28.73;27.25;;;-2.00;99.90;;;;;;5051058;28;20227;-80
2023/04/04 03:54:36;;;;;;;19.25;17.98;;;-1.80;99.90;;;;;;5033639;28;20201;-79
2023/04/04 03:57:03;;;;;;;13.23;12.43;;;-1.80;99.90;;;;;;5051386;28;20205;-79
2023/04/04 03:59:31;;;;;;;13.18;11.82;;;-1.70;99.90;;;;;;5051330;28;20216;-79
2023/04/04 04:01:58;;;;;;;7.75;7.15;;;-1.70;99.90;;;;;;5051535;28;20197;-79
2023/04/04 04:04:25;;;;;;;7.55;6.63;;;-1.80;99.80;;;;;;5033306;28;20230;-80
2023/04/04 04:06:52;;;;;;;7.53;5.85;;;-1.90;99.90;;;;;;5051486;28;20197;-79
2023/04/04 04:09:20;;;;;;;4.93;4.05;;;-2.00;99.80;;;;;;5051564;28;20221;-79
2023/04/04 04:11:47;;;;;;;7.20;4.50;;;-2.20;99.80;;;;;;5051068;28;20216;-79
2023/04/04 04:14:14;;;;;;;11.00;6.38;;;-2.30;99.90;;;;;;5051046;28;20637;-79
2023/04/04 04:16:42;;;;;;;8.90;5.95;;;-2.30;99.90;;;;;;5051294;28;20197;-79
2023/04/04 04:19:11;;;;;;;7.60;6.80;;;-2.30;99.90;;;;;;5050897;28;20213;-79
2023/04/04 04:21:38;;;;;;;9.25;8.15;;;-2.40;99.90;;;;;;5050847;28;20203;-80
2023/04/04 04:24:08;;;;;;;12.13;11.23;;;-2.40;99.90;;;;;;5050548;28;20223;-79
2023/04/04 04:26:36;;;;;;;14.48;13.57;;;-2.50;99.90;;;;;;5051295;28;20395;-79
2023/04/04 04:29:03;;;;;;;19.42;18.27;;;-2.50;99.90;;;;;;5050459;28;20304;-80
2023/04/04 04:31:30;;;;;;;25.90;24.58;;;-2.50;99.90;;;;;;5050910;28;20197;-79
2023/04/04 04:33:58;;;;;;;40.67;38.63;;;-2.60;99.90;;;;;;5050547;28;20205;-79
2023/04/04 04:36:26;;;;;;;65.18;62.40;;;-2.70;99.90;;;;;;5050697;28;20201;-79
2023/04/04 04:38:55;;;;;;;96.20;92.60;;;-2.80;99.90;;;;;;5050933;28;20638;-80
2023/04/04 04:41:22;;;;;;;97.25;93.15;;;-2.80;99.90;;;;;;5050861;28;20669;-80
2023/04/04 04:43:50;;;;;;;113.57;108.95;;;-2.90;99.90;;;;;;5050650;28;20201;-80
2023/04/04 04:46:17;;;;;;;119.78;114.65;;;-2.90;99.90;;;;;;5033029;28;20609;-79
2023/04/04 04:48:44;;;;;;;130.65;125.45;;;-3.00;99.90;;;;;;5051972;28;20213;-80
2023/04/04 04:51:13;;;;;;;133.45;128.25;;;-2.90;99.90;;;;;;5054754;28;20688;-79
2023/04/04 04:53:41;;;;;;;125.63;120.68;;;-3.00;99.90;;;;;;5054732;28;20201;-80
2023/04/04 04:56:09;;;;;;;156.45;150.45;;;-3.00;99.90;;;;;;5036695;28;20204;-80
2023/04/04 04:58:36;;;;;;;144.80;138.80;;;-3.00;99.90;;;;;;5054695;28;20320;-80
2023/04/04 05:01:03;;;;;;;182.88;175.52;;;-3.10;99.90;;;;;;5054410;28;20223;-80
2023/04/04 05:03:33;;;;;;;191.90;183.70;;;-3.10;99.90;;;;;;5054548;28;20197;-80
2023/04/04 05:06:03;;;;;;;180.80;173.45;;;-3.10;99.90;;;;;;5055256;28;20232;-80
2023/04/04 05:08:31;;;;;;;282.63;270.48;;;-3.10;99.90;;;;;;5055315;28;20244;-80
2023/04/04 05:10:59;;;;;;;299.23;286.42;;;-3.10;99.90;;;;;;5054834;28;20675;-80
2023/04/04 05:13:26;;;;;;;273.15;261.70;;;-3.00;99.90;;;;;;5054085;28;20207;-79
2023/04/04 05:15:54;;;;;;;283.67;271.75;;;-3.10;99.90;;;;;;5053782;28;20201;-80
2023/04/04 05:18:22;;;;;;;281.13;269.45;;;-3.20;99.90;;;;;;5054024;28;20221;-79
2023/04/04 05:20:53;;;;;;;256.75;245.45;;;-3.20;99.90;;;;;;5054475;28;20197;-80
2023/04/04 05:23:21;;;;;;;262.67;251.60;;;-3.10;99.90;;;;;;5054090;28;20197;-82
2023/04/04 05:25:52;;;;;;;245.20;234.88;;;-3.10;99.90;;;;;;5054478;28;20232;-82
2023/04/04 05:28:20;;;;;;;250.38;239.98;;;-2.90;99.90;;;;;;5036737;28;20800;-82
2023/04/04 05:30:46;;;;;;;248.98;238.23;;;-3.00;99.90;;;;;;5054987;28;20675;-82
2023/04/04 05:33:14;;;;;;;316.30;302.27;;;-2.90;99.90;;;;;;5037205;28;20545;-80
2023/04/04 05:35:41;;;;;;;310.15;297.00;;;-2.80;99.90;;;;;;5034633;28;20201;-80
2023/04/04 05:38:08;;;;;;;287.75;275.63;;;-2.80;99.90;;;;;;5035447;28;20245;-80
2023/04/04 05:40:35;;;;;;;274.05;262.00;;;-2.80;99.90;;;;;;5034800;28;20202;-80
2023/04/04 05:43:07;;;;;;;273.13;260.67;;;-2.80;99.90;;;;;;5033924;28;20204;-80
2023/04/04 05:45:34;;;;;;;293.90;281.17;;;-2.70;99.90;;;;;;5034856;28;20197;-80
2023/04/04 05:48:01;;;;;;;275.52;263.40;;;-2.60;99.90;;;;;;5034301;28;20249;-80
2023/04/04 05:50:29;;;;;;;338.88;323.92;;;-2.50;99.90;;;;;;5034630;28;20305;-80
2023/04/04 05:52:57;;;;;;;342.55;327.05;;;-2.50;99.90;;;;;;5034698;28;20197;-80
2023/04/04 05:55:26;;;;;;;322.77;308.38;;;-2.40;99.90;;;;;;5033715;28;20202;-80
2023/04/04 05:57:53;;;;;;;329.65;314.92;;;-2.40;99.90;;;;;;5034215;28;20225;-80
2023/04/04 06:00:25;;;;;;;382.73;365.30;;;-2.40;99.90;;;;;;5033878;28;20189;-82
2023/04/04 06:02:52;;;;;;;386.17;368.83;;;-2.20;99.90;;;;;;5033751;28;20209;-80
2023/04/04 06:05:19;;;;;;;452.45;429.77;;;-2.10;99.90;;;;;;5015079;28;20609;-80
2023/04/04 06:07:48;;;;;;;504.92;477.20;;;-2.00;99.90;;;;;;5031548;28;20264;-79
2023/04/04 06:10:15;;;;;;;473.35;449.02;;;-2.00;99.90;;;;;;5033561;28;20222;-80
2023/04/04 06:12:42;;;;;;;575.40;544.42;;;-1.60;99.90;;;;;;5033348;28;20598;-80
2023/04/04 06:15:10;;;;;;;623.22;587.75;;;-1.60;99.90;;;;;;5032977;28;20202;-80
2023/04/04 06:17:39;;;;;;;668.35;625.78;;;-1.50;99.90;;;;;;5015159;28;20961;-80
2023/04/04 06:20:08;;;;;;;657.55;618.20;;;-1.50;99.90;;;;;;5033453;28;20204;-80
2023/04/04 06:22:35;;;;;;;604.67;571.03;;;-1.40;99.90;;;;;;5015926;28;20205;-80
2023/04/04 06:25:02;;;;;;;581.17;549.03;;;-1.40;99.90;;;;;;5033414;28;20220;-80
2023/04/04 06:27:29;;;;;;;567.35;538.80;;;-1.20;99.90;;;;;;5033575;28;20194;-80
2023/04/04 06:29:56;;;;;;;569.25;541.03;;;-1.10;99.90;;;;;;5033826;28;20213;-80
2023/04/04 06:32:24;;;;;;;622.45;589.08;;;-1.10;99.90;;;;;;5015886;28;20632;-80
2023/04/04 06:34:53;;;;;;;651.80;615.47;;;-0.90;99.90;;;;;;5033349;28;20626;-80
2023/04/04 06:37:20;;;;;;;653.00;617.47;;;-0.80;99.90;;;;;;5033162;28;20653;-80
2023/04/04 06:39:53;;;;;;;672.67;634.67;;;-0.70;99.90;;;;;;5034306;28;20221;-80
2023/04/04 06:42:20;;;;;;;639.50;606.33;;;-0.50;99.90;;;;;;5016245;28;20464;-80
2023/04/04 06:44:47;;;;;;;583.07;555.33;;;-0.30;99.90;;;;;;5033450;28;20201;-80
2023/04/04 06:47:16;;;;;;;494.48;472.65;;;-0.30;99.90;;;;;;5033665;28;20452;-80
2023/04/04 06:49:44;;;;;;;385.10;369.90;;;-0.30;99.90;;;;;;5033373;28;20259;-80
2023/04/04 06:52:12;;;;;;;259.80;249.93;;;-0.10;99.90;;;;;;5034425;28;20541;-79
2023/04/04 06:54:40;;;;;;;129.48;124.53;;;0.10;99.90;;;;;;5033451;28;20204;-81
2023/04/04 06:57:07;;;;;;;81.38;77.85;;;0.30;99.90;;;;;;5033974;28;20208;-80
2023/04/04 06:59:34;;;;;;;56.37;53.93;;;0.30;99.90;;;;;;5033293;28;20222;-80
2023/04/04 07:02:00;;;;;;;36.77;34.50;;;0.40;99.90;;;;;;5032877;28;20467;-80
2023/04/04 07:04:31;;;;;;;18.10;16.97;;;0.60;99.90;;;;;;5033966;28;20956;-81
2023/04/04 07:06:58;;;;;;;9.53;7.10;;;0.70;99.90;;;;;;5033575;28;20510;-80
2023/04/04 07:09:27;;;;;;;7.10;5.90;;;0.90;99.90;;;;;;5032916;28;20476;-80
2023/04/04 07:11:54;;;;;;;8.57;6.00;;;1.10;99.90;;;;;;5031807;28;20480;-80
2023/04/04 07:14:23;;;;;;;8.07;4.67;;;1.30;99.80;;;;;;5032459;28;20464;-81
2023/04/04 07:16:52;;;;;;;10.93;4.23;;;1.50;94.80;;;;;;5032444;28;20956;-81
2023/04/04 07:19:19;;;;;;;6.10;3.70;;;1.90;94.90;;;;;;5032628;28;20567;-81
2023/04/04 07:21:46;;;;;;;5.17;3.60;;;1.90;94.00;;;;;;5033093;28;20455;-81
2023/04/04 07:24:13;;;;;;;7.70;4.17;;;2.10;92.60;;;;;;5014752;28;20531;-81
2023/04/04 07:26:41;;;;;;;8.40;4.00;;;2.40;90.60;;;;;;5032723;28;20506;-81
2023/04/04 07:29:08;;;;;;;9.20;4.07;;;2.40;89.80;;;;;;4998583;28;20482;-81
2023/04/04 07:31:35;;;;;;;5.67;3.10;;;2.50;88.80;;;;;;5032273;28;21080;-81
2023/04/04 07:34:02;;;;;;;10.43;3.80;;;2.70;83.20;;;;;;5032340;28;20470;-81
2023/04/04 07:36:41;;;;;;;10.03;4.20;;;2.80;84.50;;;;;;5032774;28;20463;-81
2023/04/04 07:39:08;;;;;;;7.33;3.37;;;2.90;85.10;;;;;;5032313;28;20975;-81
2023/04/04 07:41:35;;;;;;;5.50;3.07;;;3.00;81.10;;;;;;5032154;28;20535;-81
2023/04/04 07:44:03;;;;;;;7.93;3.33;;;3.00;80.00;;;;;;5032069;28;20460;-80
2023/04/04 07:46:30;;;;;;;10.47;2.97;;;3.20;80.50;;;;;;5032180;28;20456;-81
2023/04/04 07:48:58;;;;;;;7.00;3.20;;;3.50;72.40;;;;;;5014555;28;20526;-81
2023/04/04 07:51:28;;;;;;;4.93;2.43;;;3.60;66.10;;;;;;5014539;28;20480;-81
2023/04/04 07:53:57;;;;;;;9.67;3.50;;;3.60;69.50;;;;;;5032074;28;21006;-81
2023/04/04 07:56:25;;;;;;;6.23;2.70;;;3.80;68.50;;;;;;5032024;28;20551;-81
2023/04/04 07:58:54;;;;;;;7.70;2.73;;;3.80;66.50;;;;;;5032204;28;20567;-81
2023/04/04 08:01:22;;;;;;;7.03;2.60;;;4.10;70.50;;;;;;5032093;28;20452;-80
2023/04/04 08:03:53;;;;;;;8.23;2.97;;;4.40;65.30;;;;;;5031782;28;20448;-81
2023/04/04 08:06:20;;;;;;;7.03;2.40;;;4.70;65.40;;;;;;5032383;28;20848;-81
2023/04/04 08:08:47;;;;;;;8.83;2.23;;;5.20;57.80;;;;;;5031945;28;20473;-81
2023/04/04 08:11:14;;;;;;;5.77;2.20;;;5.50;55.60;;;;;;5031914;28;20480;-81
2023/04/04 08:13:41;;;;;;;7.07;2.30;;;5.80;51.30;;;;;;5032017;28;20452;-81
2023/04/04 08:16:08;;;;;;;9.00;2.63;;;5.90;47.70;;;;;;5032425;28;20475;-82
2023/04/04 08:18:37;;;;;;;5.00;1.70;;;5.80;41.20;;;;;;5031662;28;20476;-82
2023/04/04 08:21:04;;;;;;;6.30;2.30;;;6.00;40.30;;;;;;5031776;28;20490;-82
2023/04/04 08:23:31;;;;;;;5.70;2.03;;;6.00;41.90;;;;;;5033848;28;20487;-82
2023/04/04 08:25:59;;;;;;;4.90;1.80;;;6.20;41.40;;;;;;5038509;28;20456;-81
2023/04/04 08:28:27;;;;;;;6.83;2.00;;;6.50;41.80;;;;;;5038476;28;20472;-82
2023/04/04 08:30:55;;;;;;;7.03;2.40;;;6.70;37.70;;;;;;5038361;28;20488;-81
2023/04/04 08:33:23;;;;;;;6.23;2.27;;;6.60;41.70;;;;;;5038024;28;20472;-82
2023/04/04 08:35:52;;;;;;;5.60;2.40;;;6.80;37.00;;;;;;5038137;28;20550;-82
2023/04/04 08:38:18;;;;;;;5.57;2.00;;;6.90;35.40;;;;;;5038250;28;20480;-82
2023/04/04 08:40:47;;;;;;;5.20;1.53;;;7.10;37.30;;;;;;5038337;28;20445;-82
2023/04/04 08:43:14;;;;;;;5.70;3.00;;;7.30;36.20;;;;;;5038172;28;20515;-82
2023/04/04 08:45:43;;;;;;;5.50;1.93;;;7.30;31.50;;;;;;5037901;28;20470;-82
2023/04/04 08:48:11;;;;;;;5.17;1.80;;;7.50;31.00;;;;;;5038152;28;20490;-82
2023/04/04 08:50:39;;;;;;;8.07;2.00;;;7.40;28.40;;;;;;5038202;28;20904;-82
2023/04/04 08:53:09;;;;;;;7.63;2.33;;;7.80;26.30;;;;;;5038288;28;20455;-82
2023/04/04 08:55:36;;;;;;;6.40;2.63;;;8.00;27.20;;;;;;5037858;28;20495;-81
2023/04/04 08:58:03;;;;;;;4.60;1.80;;;8.20;26.60;;;;;;5038075;28;20480;-82
2023/04/04 09:00:30;;;;;;;5.60;1.87;;;8.30;24.80;;;;;;5038080;28;20520;-82
2023/04/04 09:03:05;;;;;;;6.00;1.95;;;8.40;22.80;;;;;;5037417;28;20518;-82
2023/04/04 09:05:32;;;;;;;4.47;1.63;;;8.20;24.50;;;;;;5020189;28;20298;-81
2023/04/04 09:07:59;;;;;;;5.93;1.83;;;8.00;22.40;;;;;;5037981;28;20865;-82
2023/04/04 09:10:28;;;;;;;6.00;2.13;;;8.20;20.80;;;;;;5037852;28;20468;-82
2023/04/04 09:12:57;;;;;;;9.40;2.50;;;8.20;19.90;;;;;;5019421;28;20456;-82
2023/04/04 09:15:23;;;;;;;5.90;2.13;;;8.20;20.60;;;;;;5057257;28;20451;-81
2023/04/04 09:17:50;;;;;;;5.80;2.37;;;8.70;20.90;;;;;;5057327;28;20479;-82
2023/04/04 09:20:37;;;;;;;12.67;2.20;;;8.90;19.90;;;;;;5057532;28;20454;-81
2023/04/04 09:23:06;;;;;;;7.20;2.50;;;8.80;19.80;;;;;;5057437;28;20473;-82
2023/04/04 09:25:37;;;;;;;6.33;2.03;;;9.00;19.90;;;;;;5057235;28;20486;-82
2023/04/04 09:28:04;;;;;;;8.10;3.53;;;9.00;17.90;;;;;;5057204;28;20471;-81
2023/04/04 09:30:34;;;;;;;7.83;2.20;;;8.80;17.50;;;;;;5057654;28;20625;-81
2023/04/04 09:33:04;;;;;;;6.17;2.57;;;9.50;15.30;;;;;;5058563;28;20538;-82
2023/04/04 09:35:33;;;;;;;10.07;2.17;;;9.50;16.80;;;;;;5055835;28;20938;-82
2023/04/04 09:38:00;;;;;;;6.57;2.40;;;9.50;16.10;;;;;;5054415;28;20985;-81
2023/04/04 09:40:28;;;;;;;6.20;1.77;;;9.40;14.50;;;;;;5036905;28;20477;-82
2023/04/04 09:43:00;;;;;;;6.40;2.47;;;9.70;10.10;;;;;;5054896;28;20550;-82
2023/04/04 09:45:28;;;;;;;6.47;2.40;;;9.60;10.60;;;;;;5036359;28;20509;-82
2023/04/04 09:47:56;;;;;;;5.80;1.80;;;10.10;11.10;;;;;;5053984;28;20475;-82
2023/04/04 09:50:23;;;;;;;5.10;2.10;;;10.00;12.50;;;;;;5053794;28;20812;-82
2023/04/04 09:52:50;;;;;;;6.30;2.40;;;9.60;7.90;;;;;;5053539;28;20487;-81
2023/04/04 09:55:19;;;;;;;7.20;2.60;;;9.90;12.80;;;;;;5053968;28;20509;-82
2023/04/04 09:57:47;;;;;;;5.17;1.80;;;10.30;10.60;;;;;;5053927;28;20507;-82
2023/04/04 10:00:20;;;;;;;6.40;1.93;;;10.50;6.80;;;;;;5054154;28;20478;-82
2023/04/04 10:02:49;;;;;;;8.00;2.40;;;11.50;6.30;;;;;;5054226;28;20836;-82
2023/04/04 10:05:16;;;;;;;6.27;2.17;;;10.60;12.00;;;;;;5053517;28;20934;-81
2023/04/04 10:07:46;;;;;;;9.70;2.33;;;10.50;7.70;;;;;;5036090;28;20458;-77
2023/04/04 10:10:15;;;;;;;8.77;2.50;;;10.80;4.50;;;;;;5053304;28;20458;-82
2023/04/04 10:12:46;;;;;;;6.33;2.03;;;11.30;3.60;;;;;;5053758;28;20216;-82
2023/04/04 10:15:17;;;;;;;7.17;2.37;;;11.60;3.90;;;;;;5055650;28;20510;-82
2023/04/04 10:17:47;;;;;;;7.70;2.83;;;11.30;4.40;;;;;;5054558;28;20475;-82
2023/04/04 10:20:15;;;;;;;6.83;2.77;;;11.10;5.80;;;;;;5036278;28;20456;-82
2023/04/04 10:22:45;;;;;;;8.13;3.17;;;11.40;3.90;;;;;;5054345;28;20463;-82
2023/04/04 10:25:13;;;;;;;5.60;1.90;;;11.60;4.20;;;;;;5054055;28;20466;-82
2023/04/04 10:27:41;;;;;;;14.90;2.33;;;11.60;1.70;;;;;;5053825;28;20521;-82
2023/04/04 10:30:09;;;;;;;5.60;2.20;;;11.70;1.00;;;;;;5054223;28;20462;-82
2023/04/04 10:32:53;;;;;;;7.30;2.70;;;11.60;1.00;;;;;;5053387;28;20477;-82
2023/04/04 10:35:24;;;;;;;6.23;2.13;;;11.70;2.00;;;;;;5053465;28;20461;-81
2023/04/04 10:37:57;;;;;;;5.20;1.93;;;11.50;1.00;;;;;;5053625;28;20563;-82
2023/04/04 10:40:27;;;;;;;6.60;2.07;;;11.60;1.90;;;;;;5053506;28;20462;-82
2023/04/04 10:42:56;;;;;;;5.80;2.23;;;11.70;1.00;;;;;;5053332;28;20451;-82
2023/04/04 10:45:25;;;;;;;6.70;2.30;;;11.90;4.00;;;;;;5053257;28;20885;-82
2023/04/04 10:47:56;;;;;;;7.30;2.97;;;12.50;1.00;;;;;;5053032;28;21015;-83
2023/04/04 10:50:24;;;;;;;5.93;2.57;;;12.90;1.00;;;;;;5035296;28;20516;-83
2023/04/04 10:52:51;;;;;;;6.23;2.60;;;12.40;1.00;;;;;;5053151;28;20490;-82
2023/04/04 10:55:18;;;;;;;7.03;2.23;;;12.20;1.00;;;;;;5034980;28;20451;-82
2023/04/04 10:57:50;;;;;;;6.80;2.93;;;11.80;1.00;;;;;;5035464;28;20486;-82
2023/04/04 11:00:19;;;;;;;7.03;2.43;;;12.10;1.00;;;;;;5052798;28;20469;-82
2023/04/04 11:02:50;;;;;;;9.50;2.03;;;13.10;1.00;;;;;;5052935;28;20537;-83
2023/04/04 11:05:29;;;;;;;7.10;2.50;;;12.90;1.00;;;;;;5052832;28;20455;-83
2023/04/04 11:07:58;;;;;;;6.97;2.27;;;13.30;1.00;;;;;;5052614;28;20498;-82
2023/04/04 11:10:28;;;;;;;7.63;2.53;;;13.60;1.00;;;;;;5052877;28;20456;-82
2023/04/04 11:12:56;;;;;;;7.67;2.63;;;12.80;1.00;;;;;;5052459;28;20533;-82
2023/04/04 11:15:26;;;;;;;5.10;2.00;;;13.90;1.00;;;;;;5052691;28;20498;-82
2023/04/04 11:17:57;;;;;;;6.60;2.70;;;13.00;1.00;;;;;;5052484;28;20479;-82
2023/04/04 11:20:31;;;;;;;8.70;2.47;;;13.10;1.00;;;;;;5052373;28;20458;-82
2023/04/04 11:23:03;;;;;;;6.80;2.50;;;13.10;1.00;;;;;;5052251;28;20539;-82
2023/04/04 11:25:38;;;;;;;6.17;2.40;;;13.60;1.00;;;;;;5052452;28;20460;-82
2023/04/04 11:28:13;;;;;;;6.13;2.97;;;13.40;1.00;;;;;;5052491;28;20477;-82
2023/04/04 11:30:47;;;;;;;10.53;3.00;;;13.60;1.00;;;;;;5052430;28;20457;-84
2023/04/04 11:33:14;;;;;;;5.97;2.50;;;13.50;1.00;;;;;;5051842;28;21075;-84
2023/04/04 11:35:47;;;;;;;6.60;2.53;;;13.90;1.00;;;;;;5052091;28;20459;-84
2023/04/04 11:38:15;;;;;;;6.97;2.93;;;13.80;1.00;;;;;;5033922;28;20850;-85
2023/04/04 11:40:52;;;;;;;6.07;2.40;;;14.40;1.00;;;;;;5051610;28;20453;-84
2023/04/04 11:43:21;;;;;;;6.10;2.53;;;14.10;1.00;;;;;;5051657;28;20458;-85
2023/04/04 11:45:48;;;;;;;7.13;2.47;;;14.20;1.00;;;;;;5034729;28;20548;-83
2023/04/04 11:48:18;;;;;;;6.37;2.27;;;13.90;1.00;;;;;;5052034;28;20492;-83
2023/04/04 11:50:50;;;;;;;7.07;2.60;;;13.80;1.00;;;;;;5051795;28;20926;-83
2023/04/04 11:53:19;;;;;;;6.53;2.47;;;14.20;1.00;;;;;;5051595;28;20449;-83
2023/04/04 11:55:59;;;;;;;7.07;2.27;;;14.20;1.00;;;;;;5034126;28;20539;-86
2023/04/04 11:58:27;;;;;;;6.90;2.37;;;14.90;1.00;;;;;;5051990;28;20518;-87
2023/04/04 12:00:54;;;;;;;6.43;2.40;;;15.10;1.00;;;;;;5052444;28;20516;-83
2023/04/04 12:03:23;;;;;;;5.90;2.10;;;15.70;1.00;;;;;;5051752;28;20491;-87
2023/04/04 12:05:51;;;;;;;5.70;2.60;;;15.70;1.00;;;;;;5033677;28;20562;-82
2023/04/04 12:08:19;;;;;;;5.97;2.20;;;15.90;1.00;;;;;;5051240;28;20482;-82
2023/04/04 12:10:46;;;;;;;8.50;3.00;;;15.60;1.00;;;;;;5051764;28;20547;-83
2023/04/04 12:13:13;;;;;;;7.57;2.60;;;15.60;1.00;;;;;;5051331;28;20453;-83
2023/04/04 12:15:39;;;;;;;5.63;2.00;;;15.10;1.00;;;;;;5051340;28;20471;-83
2023/04/04 12:18:07;;;;;;;7.23;2.63;;;14.90;1.00;;;;;;5051698;28;20471;-83
2023/04/04 12:20:37;;;;;;;7.80;2.47;;;14.60;1.00;;;;;;5051523;28;20457;-83
2023/04/04 12:23:09;;;;;;;6.43;2.70;;;15.00;1.00;;;;;;5051113;28;20480;-83
2023/04/04 12:25:38;;;;;;;5.60;2.40;;;15.00;1.00;;;;;;5052150;28;20461;-83
2023/04/04 12:28:07;;;;;;;7.30;2.47;;;14.90;1.00;;;;;;5033468;28;20487;-81
2023/04/04 12:30:34;;;;;;;6.13;2.77;;;15.50;1.00;;;;;;5033649;28;20468;-82
2023/04/04 12:33:01;;;;;;;6.70;2.70;;;15.60;1.00;;;;;;5051393;28;20458;-83
2023/04/04 12:35:30;;;;;;;6.73;3.50;;;16.20;1.00;;;;;;5051080;28;20972;-83
2023/04/04 12:38:06;;;;;;;7.07;2.87;;;15.80;1.00;;;;;;5033565;28;21184;-84
2023/04/04 12:40:36;;;;;;;6.80;3.03;;;15.30;1.00;;;;;;5051601;28;20464;-83
2023/04/04 12:43:05;;;;;;;15.03;3.20;;;14.80;1.00;;;;;;5051308;28;20480;-83
2023/04/04 12:45:33;;;;;;;7.70;2.90;;;15.80;1.00;;;;;;5051139;28;20465;-83
2023/04/04 12:48:00;;;;;;;7.33;2.70;;;16.80;1.00;;;;;;5032833;28;20480;-83